メインページ
METAR-TAF:

METAR-TAF

空港 :

キング・アブドラアジズ飛行場

ダーラン, サウジアラビア

緯度: 26-16N, 経度: 050-09E, 海抜: 26m

現時点の気象観測

当レポートは42分前の06:00(UTC)に作成
の風 8kt、北西から北/北東の間で変化する
気温 29°C
湿度 33%
気圧 1006 hPa
視程10km以上
1,500メートル以下は雲なし、積乱雲なし

METAR: OEDR 250600Z 35008KT 320V030 CAVOK 29/11 Q1006

時間: 09:42 (06:42 UTC)

予報

当レポートは8時間42分前の22:00(UTC)に作成
予報は25日の 00時(UTC)から 26日の 06時(UTC)まで有効
変向風 3kt
視程10km以上
1,500メートル以下は雲なし、積乱雲なし
25日の 04時(UTC)から 25日の 06時(UTC)まで徐々に
北/北西の風 7kt
25日の 12時(UTC)から 25日の 14時(UTC)まで徐々に
東/北東の風 12kt
確率 30% :
25日の 21時(UTC)から 26日の 04時(UTC)まで一時的に
変向風 3kt
視程: 5000m
靄,

TAF: OEDR 242200Z 2500/2606 VRB03KT CAVOK BECMG 2504/2506 34007KT BECMG 2512/2514 06012KT PROB30 TEMPO 2521/2604 VRB03KT 5000 BR NSC

4,000以上の空港の気象観測と天気予報(METAR報とTAF報)

利用可能な観測所は地図上に黄色い丸と赤い丸で示す。

丸の上にカーソルを重ねると観測所名を参照できる。

次にクリックすると気象観測と天気予報を参照できる。

マップの切り替え:黒色「×」印の緑ボタンをクリックして拡大、「-」印の緑ボタンをクリックして縮小、緑色の三角印をクリックして隣りの地図に切り替え


METAR-TAF: